Time;durP1;ratioP1;P1;durP2;ratioP2;P2;SDS_P1;SDS_P2;PMS_P1;PMS_P2;Temp;Humidity;BMP_temperature;BMP_pressure;BME280_temperature;BME280_humidity;BME280_pressure;Samples;Min_cycle;Max_cycle;Signal;HPM_P1;HPM_P2
2021/12/03 00:00:44;;;;;;;4.13;1.08;;;1.70;99.90;;;;;;5067620;28;20166;-86
2021/12/03 00:03:11;;;;;;;5.97;0.88;;;1.70;99.90;;;;;;5066773;28;20452;-86
2021/12/03 00:05:38;;;;;;;5.18;0.82;;;3.00;99.90;;;;;;5050801;28;20423;-87
2021/12/03 00:08:05;;;;;;;6.60;1.08;;;1.70;99.90;;;;;;5066262;28;20544;-86
2021/12/03 00:10:31;;;;;;;2.55;0.65;;;1.70;99.90;;;;;;5049802;28;20051;-86
2021/12/03 00:13:00;;;;;;;5.32;1.33;;;1.70;99.90;;;;;;5067239;28;20124;-86
2021/12/03 00:15:27;;;;;;;2.30;0.80;;;1.80;99.90;;;;;;5066530;28;20140;-86
2021/12/03 00:17:53;;;;;;;1.88;1.00;;;3.00;99.90;;;;;;5034314;28;20044;-86
2021/12/03 00:20:20;;;;;;;2.17;0.65;;;1.80;99.90;;;;;;5066029;28;20040;-86
2021/12/03 00:22:49;;;;;;;4.60;1.45;;;1.90;99.90;;;;;;5068006;28;20097;-87
2021/12/03 00:25:15;;;;;;;7.18;2.00;;;1.90;99.90;;;;;;5049364;28;20040;-86
2021/12/03 00:27:42;;;;;;;4.03;1.58;;;1.90;99.90;;;;;;5066619;28;20487;-86
2021/12/03 00:30:10;;;;;;;4.47;1.50;;;2.00;99.90;;;;;;5067077;28;20062;-86
2021/12/03 00:32:36;;;;;;;5.03;1.10;;;2.00;99.90;;;;;;5050084;28;20048;-86
2021/12/03 00:35:04;;;;;;;4.80;1.15;;;2.00;99.90;;;;;;5051017;28;20107;-86
2021/12/03 00:37:29;;;;;;;2.95;0.73;;;2.00;99.90;;;;;;5084408;28;20058;-87
2021/12/03 00:39:55;;;;;;;1.75;0.70;;;2.00;99.90;;;;;;5086028;28;20399;-86
2021/12/03 00:42:21;;;;;;;2.22;0.80;;;2.00;99.90;;;;;;5084617;28;20040;-86
2021/12/03 00:44:52;;;;;;;1.45;0.98;;;3.50;99.90;;;;;;5067307;28;20036;-86
2021/12/03 00:47:19;;;;;;;1.75;0.65;;;1.90;99.90;;;;;;5034484;28;20040;-86
2021/12/03 00:49:45;;;;;;;6.68;0.70;;;1.90;99.90;;;;;;5068927;28;20261;-86
2021/12/03 00:52:11;;;;;;;2.83;0.50;;;1.90;99.90;;;;;;5099284;28;20051;-86
2021/12/03 00:54:37;;;;;;;5.57;0.70;;;2.00;99.90;;;;;;5062711;28;20040;-87
2021/12/03 00:57:03;;;;;;;3.70;0.75;;;1.90;99.90;;;;;;5098803;28;20046;-87
2021/12/03 00:59:30;;;;;;;2.45;0.60;;;1.90;99.90;;;;;;5061652;28;20044;-86
2021/12/03 01:01:56;;;;;;;3.80;0.85;;;1.90;99.90;;;;;;5093513;28;20140;-87
2021/12/03 01:04:22;;;;;;;1.75;0.68;;;2.40;99.90;;;;;;5044421;28;20048;-87
2021/12/03 01:06:48;;;;;;;7.32;0.88;;;1.90;99.90;;;;;;5065953;28;20052;-86
2021/12/03 01:09:14;;;;;;;2.85;0.68;;;1.90;99.90;;;;;;5067248;28;20046;-86
2021/12/03 01:11:40;;;;;;;3.65;0.85;;;3.20;99.90;;;;;;5049670;28;20394;-86
2021/12/03 01:14:06;;;;;;;3.58;0.80;;;1.90;99.90;;;;;;5050577;28;20032;-86
2021/12/03 01:16:32;;;;;;;3.15;0.40;;;1.80;99.90;;;;;;5032209;28;20491;-86
2021/12/03 01:18:59;;;;;;;0.93;0.50;;;1.80;99.90;;;;;;5066772;28;20122;-86
2021/12/03 01:21:26;;;;;;;8.15;0.80;;;2.40;99.90;;;;;;5066354;28;20426;-86
2021/12/03 01:23:53;;;;;;;4.53;0.90;;;1.90;99.90;;;;;;5083968;28;20107;-86
2021/12/03 01:26:20;;;;;;;2.40;0.73;;;1.80;99.90;;;;;;5084493;28;20044;-86
2021/12/03 01:28:46;;;;;;;2.17;0.75;;;1.80;99.90;;;;;;5065149;28;20077;-86
2021/12/03 01:31:13;;;;;;;6.20;0.88;;;0.40;99.90;;;;;;5067174;28;20444;-86
2021/12/03 01:33:39;;;;;;;2.30;0.63;;;1.80;99.90;;;;;;5066006;28;20445;-86
2021/12/03 01:36:05;;;;;;;2.72;1.45;;;1.80;99.90;;;;;;5066024;28;20036;-85
2021/12/03 01:38:31;;;;;;;3.95;0.60;;;1.80;99.90;;;;;;5049161;28;20082;-86
2021/12/03 01:40:57;;;;;;;5.50;0.85;;;1.80;99.90;;;;;;5053314;28;20105;-86
2021/12/03 01:43:25;;;;;;;7.43;0.80;;;1.80;99.90;;;;;;5054492;28;20040;-86
2021/12/03 01:45:54;;;;;;;4.60;0.70;;;1.80;99.90;;;;;;5052606;28;20074;-86
2021/12/03 01:48:20;;;;;;;3.40;0.90;;;1.80;99.90;;;;;;5070362;28;20601;-86
2021/12/03 01:50:46;;;;;;;2.35;0.77;;;1.90;99.90;;;;;;5036447;28;20079;-86
2021/12/03 01:53:16;;;;;;;3.92;1.08;;;3.50;99.90;;;;;;5052982;28;20070;-86
2021/12/03 01:55:44;;;;;;;4.32;0.77;;;1.70;99.90;;;;;;5052851;28;20051;-87
2021/12/03 01:58:10;;;;;;;3.53;0.73;;;1.70;99.90;;;;;;5052376;28;20055;-86
2021/12/03 02:00:54;;;;;;;5.05;0.90;;;2.80;99.90;;;;;;5070298;28;20044;-86
2021/12/03 02:03:27;;;;;;;0.80;0.60;;;2.10;99.90;;;;;;5068853;28;20514;-86
2021/12/03 02:05:54;;;;;;;;;;;1.70;99.90;;;;;;5069807;28;20110;-86
2021/12/03 02:08:20;;;;;;;2.40;0.63;;;2.30;99.90;;;;;;5052275;28;19955;-87
2021/12/03 02:10:46;;;;;;;2.65;0.70;;;1.70;99.90;;;;;;5069116;28;20047;-87
2021/12/03 02:13:14;;;;;;;2.42;0.55;;;1.70;99.90;;;;;;5069913;28;20497;-86
2021/12/03 02:15:41;;;;;;;5.43;0.85;;;0.50;99.90;;;;;;5052126;28;20040;-86
2021/12/03 02:18:08;;;;;;;1.65;0.60;;;1.70;99.90;;;;;;5069615;28;20044;-87
2021/12/03 02:20:34;;;;;;;2.25;0.52;;;2.80;99.90;;;;;;5051796;28;20041;-86
2021/12/03 02:23:00;;;;;;;2.08;0.50;;;1.70;99.90;;;;;;5052722;28;20124;-86
2021/12/03 02:25:27;;;;;;;3.20;0.57;;;1.70;99.90;;;;;;5052351;28;20202;-86
2021/12/03 02:27:57;;;;;;;4.68;0.75;;;1.70;99.90;;;;;;5052035;28;20052;-86
2021/12/03 02:30:24;;;;;;;4.13;0.73;;;1.70;99.90;;;;;;5052840;28;20040;-86
2021/12/03 02:32:51;;;;;;;3.75;0.65;;;1.70;99.90;;;;;;5035307;28;20044;-87
2021/12/03 02:35:19;;;;;;;2.60;0.80;;;1.70;99.90;;;;;;5052781;28;20048;-86
2021/12/03 02:37:44;;;;;;;2.08;1.02;;;1.60;99.90;;;;;;5034969;28;20044;-86
2021/12/03 02:40:11;;;;;;;2.95;0.63;;;1.60;99.90;;;;;;5069199;28;20048;-87
2021/12/03 02:42:37;;;;;;;2.15;0.70;;;1.60;99.90;;;;;;5087544;28;20095;-86
2021/12/03 02:45:04;;;;;;;3.42;0.50;;;1.60;99.90;;;;;;5068080;28;20047;-86
2021/12/03 02:47:30;;;;;;;2.28;0.70;;;1.60;99.90;;;;;;5052540;28;20044;-86
2021/12/03 02:49:56;;;;;;;1.75;0.80;;;0.70;99.90;;;;;;5034566;28;20044;-86
2021/12/03 02:52:22;;;;;;;3.03;0.80;;;1.60;99.90;;;;;;5037033;28;20044;-86
2021/12/03 02:54:47;;;;;;;2.00;0.90;;;1.60;99.90;;;;;;5068068;28;20123;-86
2021/12/03 02:57:13;;;;;;;3.28;0.80;;;1.70;99.90;;;;;;5069181;28;20051;-87
2021/12/03 02:59:39;;;;;;;4.03;0.90;;;1.70;99.90;;;;;;5069355;28;20044;-87
2021/12/03 03:02:05;;;;;;;4.15;0.63;;;1.70;99.90;;;;;;5051976;28;20568;-87
2021/12/03 03:04:31;;;;;;;1.85;0.75;;;1.70;99.90;;;;;;5069532;28;20040;-87
2021/12/03 03:06:57;;;;;;;4.55;0.82;;;1.70;99.90;;;;;;5094866;28;20052;-87
2021/12/03 03:09:24;;;;;;;2.42;0.90;;;1.70;99.90;;;;;;5081951;28;20037;-87
2021/12/03 03:11:50;;;;;;;3.10;0.63;;;1.80;99.90;;;;;;5080164;28;20051;-86
2021/12/03 03:14:16;;;;;;;2.75;0.88;;;1.80;99.90;;;;;;5080992;28;20040;-86
2021/12/03 03:16:41;;;;;;;3.28;1.20;;;1.80;99.90;;;;;;5099115;28;20047;-87
2021/12/03 03:19:20;;;;;;;3.22;1.20;;;1.80;99.90;;;;;;5063822;28;20059;-87
2021/12/03 03:21:47;;;;;;;3.08;1.27;;;1.80;99.90;;;;;;5071130;28;20054;-86
2021/12/03 03:24:14;;;;;;;4.93;1.40;;;2.10;99.90;;;;;;5050529;28;20040;-86
2021/12/03 03:26:42;;;;;;;9.57;1.92;;;1.90;99.90;;;;;;5035404;28;20098;-86
2021/12/03 03:29:11;;;;;;;6.43;1.90;;;1.90;99.90;;;;;;5085609;28;20399;-87
2021/12/03 03:31:38;;;;;;;7.18;2.25;;;1.90;99.90;;;;;;5067555;28;20082;-87
2021/12/03 03:34:05;;;;;;;5.30;2.50;;;3.60;99.90;;;;;;5067767;28;20117;-87
2021/12/03 03:36:36;;;;;;;8.60;2.63;;;2.00;99.90;;;;;;5050499;28;20040;-86
2021/12/03 03:39:04;;;;;;;4.13;2.53;;;2.00;99.90;;;;;;5052170;28;20044;-87
2021/12/03 03:41:29;;;;;;;10.40;3.15;;;2.00;99.90;;;;;;5066946;28;20048;-86
2021/12/03 03:43:55;;;;;;;7.80;3.25;;;2.90;99.90;;;;;;5051866;28;20062;-87
2021/12/03 03:46:21;;;;;;;8.88;3.50;;;2.00;99.90;;;;;;5068419;28;20083;-88
2021/12/03 03:48:47;;;;;;;14.57;4.40;;;2.00;99.90;;;;;;5086483;28;20497;-86
2021/12/03 03:51:13;;;;;;;8.93;4.40;;;2.00;99.90;;;;;;5051459;28;20437;-87
2021/12/03 03:53:40;;;;;;;9.35;5.25;;;2.00;99.90;;;;;;5068068;28;20148;-87
2021/12/03 03:56:07;;;;;;;12.25;6.00;;;2.10;99.90;;;;;;5086722;28;20139;-87
2021/12/03 03:58:33;;;;;;;15.68;5.88;;;2.10;99.90;;;;;;5085096;28;20097;-87
2021/12/03 04:00:59;;;;;;;11.23;6.38;;;2.10;99.90;;;;;;5052064;28;20417;-87
2021/12/03 04:03:25;;;;;;;10.77;6.45;;;2.90;99.90;;;;;;5033229;28;20039;-87
2021/12/03 04:05:52;;;;;;;12.88;7.38;;;2.10;99.90;;;;;;5067326;28;20461;-87
2021/12/03 04:08:18;;;;;;;14.88;8.38;;;2.10;99.90;;;;;;5050674;28;20082;-86
2021/12/03 04:10:46;;;;;;;14.15;8.68;;;2.80;99.90;;;;;;5066463;28;20452;-87
2021/12/03 04:13:11;;;;;;;18.20;9.13;;;2.10;99.90;;;;;;5067846;28;20084;-87
2021/12/03 04:15:37;;;;;;;17.50;10.25;;;2.10;99.90;;;;;;5033373;28;20493;-87
2021/12/03 04:18:04;;;;;;;14.23;8.82;;;2.10;99.90;;;;;;5050631;28;20044;-86
2021/12/03 04:20:30;;;;;;;20.77;10.27;;;2.20;99.90;;;;;;5066800;28;20039;-87
2021/12/03 04:22:56;;;;;;;18.40;10.48;;;2.20;99.90;;;;;;5067283;28;20449;-87
2021/12/03 04:25:22;;;;;;;17.25;10.65;;;2.20;99.90;;;;;;5085499;28;20048;-87
2021/12/03 04:27:49;;;;;;;17.92;9.48;;;2.20;99.90;;;;;;5049456;28;20126;-87
2021/12/03 04:30:19;;;;;;;19.30;9.85;;;2.10;99.90;;;;;;5051083;28;20101;-87
2021/12/03 04:32:45;;;;;;;14.18;9.75;;;3.90;99.90;;;;;;5066032;28;20093;-87
2021/12/03 04:35:11;;;;;;;24.83;10.55;;;2.10;99.90;;;;;;5067971;28;20048;-86
2021/12/03 04:37:37;;;;;;;16.08;9.82;;;2.10;99.90;;;;;;5049580;28;20458;-87
2021/12/03 04:40:06;;;;;;;16.67;9.90;;;2.10;99.90;;;;;;5049936;28;20040;-86
2021/12/03 04:42:32;;;;;;;18.02;10.38;;;2.20;99.90;;;;;;5066624;28;20044;-87
2021/12/03 04:44:57;;;;;;;18.55;9.80;;;2.10;99.90;;;;;;5084508;28;20036;-87
2021/12/03 04:47:23;;;;;;;14.52;9.70;;;2.10;99.90;;;;;;5033839;28;20036;-87
2021/12/03 04:49:49;;;;;;;11.95;8.73;;;3.70;99.90;;;;;;5065919;28;20529;-87
2021/12/03 04:52:15;;;;;;;15.95;9.25;;;2.10;99.90;;;;;;5050356;28;20127;-87
2021/12/03 04:54:42;;;;;;;17.00;9.90;;;2.10;99.90;;;;;;5049623;28;20051;-87
2021/12/03 04:57:08;;;;;;;12.65;8.95;;;2.90;99.90;;;;;;5034004;28;20414;-87
2021/12/03 04:59:34;;;;;;;14.85;9.45;;;2.10;99.90;;;;;;5050355;28;20040;-87
2021/12/03 05:02:00;;;;;;;13.50;8.88;;;2.10;99.90;;;;;;5016173;28;20491;-87
2021/12/03 05:04:25;;;;;;;16.52;10.02;;;2.10;99.90;;;;;;5085455;28;20054;-87
2021/12/03 05:06:56;;;;;;;18.75;10.15;;;2.10;99.90;;;;;;5049857;28;20040;-87
2021/12/03 05:09:23;;;;;;;13.93;9.63;;;2.10;99.90;;;;;;5066429;28;20064;-87
2021/12/03 05:11:49;;;;;;;14.60;9.18;;;2.00;99.90;;;;;;5083936;28;20326;-87
2021/12/03 05:14:15;;;;;;;12.82;8.13;;;2.10;99.90;;;;;;5064627;28;20115;-87
2021/12/03 05:16:44;;;;;;;19.77;9.13;;;2.00;99.90;;;;;;5085151;28;20028;-87
2021/12/03 05:19:10;;;;;;;12.90;8.45;;;2.10;99.90;;;;;;5075500;28;20052;-87
2021/12/03 05:21:36;;;;;;;12.88;8.50;;;2.10;99.90;;;;;;5046975;28;20044;-86
2021/12/03 05:24:03;;;;;;;16.05;8.93;;;2.10;99.90;;;;;;5064697;28;20044;-87
2021/12/03 05:26:28;;;;;;;14.48;8.38;;;2.10;99.90;;;;;;5048249;28;20107;-86
2021/12/03 05:28:54;;;;;;;17.38;8.30;;;2.10;99.90;;;;;;5062150;28;20044;-87
2021/12/03 05:31:20;;;;;;;15.27;7.65;;;2.10;99.90;;;;;;5079081;28;20653;-86
2021/12/03 05:33:45;;;;;;;11.23;7.45;;;2.20;99.90;;;;;;5067551;28;20086;-88
2021/12/03 05:36:11;;;;;;;12.75;7.00;;;2.20;99.90;;;;;;5015197;28;20047;-87
2021/12/03 05:38:38;;;;;;;13.90;7.78;;;3.40;99.90;;;;;;5065843;28;20051;-87
2021/12/03 05:41:03;;;;;;;10.73;7.07;;;2.20;99.90;;;;;;5065134;28;20422;-87
2021/12/03 05:43:29;;;;;;;11.88;6.93;;;2.20;99.90;;;;;;5066064;28;20051;-87
2021/12/03 05:45:55;;;;;;;11.02;7.45;;;2.20;99.90;;;;;;5064091;28;20204;-88
2021/12/03 05:48:20;;;;;;;10.00;7.43;;;2.20;99.90;;;;;;5048251;28;20085;-87
2021/12/03 05:50:47;;;;;;;11.30;7.68;;;2.90;99.90;;;;;;5032401;28;20048;-88
2021/12/03 05:53:13;;;;;;;15.93;7.53;;;2.20;99.90;;;;;;5048173;28;20166;-87
2021/12/03 05:55:39;;;;;;;11.98;7.30;;;3.60;99.90;;;;;;5015770;28;20085;-88
2021/12/03 05:58:05;;;;;;;11.27;7.35;;;2.10;99.90;;;;;;5048153;28;20044;-88
2021/12/03 06:00:40;;;;;;;12.07;7.72;;;2.10;99.90;;;;;;5032308;28;20130;-87
2021/12/03 06:03:05;;;;;;;10.85;7.15;;;2.40;99.90;;;;;;5064663;28;20055;-87
2021/12/03 06:05:33;;;;;;;10.80;7.43;;;2.10;99.90;;;;;;5064957;28;20386;-87
2021/12/03 06:07:58;;;;;;;13.65;7.68;;;2.10;99.90;;;;;;5008415;28;1150302;-87
2021/12/03 06:10:26;;;;;;;16.20;7.93;;;3.10;99.90;;;;;;5049249;28;20062;-87
2021/12/03 06:12:53;;;;;;;19.08;7.90;;;2.10;99.90;;;;;;5066398;28;20044;-88
2021/12/03 06:15:19;;;;;;;11.88;7.97;;;2.10;99.90;;;;;;5032158;28;20071;-87
2021/12/03 06:17:45;;;;;;;12.55;7.47;;;3.40;99.90;;;;;;5084993;28;20040;-88
2021/12/03 06:20:12;;;;;;;14.65;7.50;;;2.10;99.90;;;;;;5083933;28;20051;-86
2021/12/03 06:22:38;;;;;;;12.15;7.68;;;2.10;99.90;;;;;;5084250;28;20097;-87
2021/12/03 06:25:06;;;;;;;13.55;7.47;;;2.10;99.90;;;;;;5085315;28;20456;-86
2021/12/03 06:27:32;;;;;;;9.93;6.93;;;2.10;99.90;;;;;;5068872;28;20040;-88
2021/12/03 06:29:58;;;;;;;10.48;7.70;;;3.30;99.90;;;;;;5069969;28;20040;-89
2021/12/03 06:32:24;;;;;;;12.82;7.68;;;2.20;99.90;;;;;;5053261;28;20135;-88
2021/12/03 06:34:51;;;;;;;17.73;8.25;;;2.20;99.90;;;;;;5036861;28;20123;-89
2021/12/03 06:37:17;;;;;;;10.88;7.40;;;2.20;99.90;;;;;;5052377;28;20047;-88
2021/12/03 06:39:42;;;;;;;11.18;8.02;;;2.20;99.90;;;;;;5069709;28;20048;-86
2021/12/03 06:42:08;;;;;;;14.43;8.23;;;2.30;99.90;;;;;;5069555;28;20101;-88
2021/12/03 06:44:34;;;;;;;14.43;7.93;;;2.30;99.90;;;;;;5035335;28;20135;-92
2021/12/03 06:47:02;;;;;;;12.50;7.32;;;2.30;99.90;;;;;;5053472;28;20048;-90
2021/12/03 06:49:29;;;;;;;10.57;7.88;;;3.00;99.90;;;;;;5069757;28;20040;-89
2021/12/03 06:52:01;;;;;;;17.60;7.68;;;2.30;99.90;;;;;;5037161;28;20071;-91
2021/12/03 06:54:30;;;;;;;10.55;8.05;;;2.30;99.90;;;;;;5036850;28;20044;-89
2021/12/03 06:56:56;;;;;;;17.30;8.32;;;2.30;99.90;;;;;;5069665;28;20080;-89
2021/12/03 06:59:24;;;;;;;13.48;8.43;;;2.40;99.90;;;;;;5052811;28;20074;-90
2021/12/03 07:01:50;;;;;;;9.18;7.63;;;2.40;99.90;;;;;;5036020;28;20467;-89
2021/12/03 07:04:17;;;;;;;10.68;7.68;;;2.40;99.90;;;;;;5036706;28;20043;-90
2021/12/03 07:06:43;;;;;;;9.40;6.55;;;2.40;99.90;;;;;;5068672;28;20097;-89
2021/12/03 07:09:09;;;;;;;7.80;6.38;;;2.40;99.90;;;;;;5068779;28;20503;-89
2021/12/03 07:11:35;;;;;;;11.30;6.63;;;2.50;99.90;;;;;;5086864;28;20051;-89
2021/12/03 07:14:01;;;;;;;11.57;7.25;;;3.50;99.90;;;;;;5052126;28;20036;-89
2021/12/03 07:16:28;;;;;;;10.30;6.25;;;3.70;99.90;;;;;;5069253;28;20074;-89
2021/12/03 07:18:54;;;;;;;12.80;5.90;;;2.50;99.90;;;;;;5069190;28;20102;-89
2021/12/03 07:21:21;;;;;;;9.23;6.60;;;4.50;99.90;;;;;;5053916;28;20044;-89
2021/12/03 07:23:50;;;;;;;12.50;6.00;;;2.60;99.90;;;;;;5054107;28;20048;-88
2021/12/03 07:26:16;;;;;;;9.15;4.93;;;2.60;99.90;;;;;;5074106;28;20050;-89
2021/12/03 07:28:42;;;;;;;11.35;5.68;;;2.60;99.90;;;;;;5059030;28;20048;-88
2021/12/03 07:31:08;;;;;;;11.10;4.68;;;2.60;99.90;;;;;;5099127;28;20077;-89
2021/12/03 07:33:33;;;;;;;9.52;5.43;;;2.70;99.90;;;;;;5080473;28;20048;-88
2021/12/03 07:35:59;;;;;;;6.88;4.80;;;2.70;99.90;;;;;;5061473;28;20079;-88
2021/12/03 07:38:25;;;;;;;10.63;4.95;;;2.70;99.90;;;;;;5060159;28;20044;-89
2021/12/03 07:40:51;;;;;;;9.65;4.20;;;2.70;99.90;;;;;;5041441;28;20036;-88
2021/12/03 07:43:18;;;;;;;7.85;4.43;;;2.70;99.90;;;;;;5037095;28;20421;-88
2021/12/03 07:45:46;;;;;;;7.35;4.32;;;3.60;99.90;;;;;;5050416;28;20047;-87
2021/12/03 07:48:12;;;;;;;8.25;4.80;;;3.40;99.90;;;;;;5051416;28;20044;-88
2021/12/03 07:50:39;;;;;;;7.10;3.50;;;4.30;99.90;;;;;;5067848;28;20058;-88
2021/12/03 07:53:07;;;;;;;6.97;3.30;;;2.90;99.90;;;;;;5050327;28;20048;-88
2021/12/03 07:55:33;;;;;;;4.30;3.38;;;3.90;99.90;;;;;;5051629;28;20055;-88
2021/12/03 07:58:00;;;;;;;7.70;3.60;;;2.90;99.90;;;;;;5050354;28;20044;-88
2021/12/03 08:00:25;;;;;;;10.60;3.55;;;3.70;99.90;;;;;;5068404;28;20093;-88
2021/12/03 08:02:51;;;;;;;5.07;3.00;;;4.80;99.90;;;;;;5070563;28;20044;-88
2021/12/03 08:05:17;;;;;;;4.72;2.85;;;2.90;99.90;;;;;;5037810;28;20562;-86
2021/12/03 08:07:47;;;;;;;4.80;2.40;;;2.90;99.90;;;;;;5037480;28;20407;-87
2021/12/03 08:10:14;;;;;;;8.65;3.47;;;2.90;99.90;;;;;;5055034;28;20209;-87
2021/12/03 08:12:41;;;;;;;5.95;2.63;;;2.90;99.90;;;;;;5054870;28;20391;-87
2021/12/03 08:15:07;;;;;;;9.02;3.00;;;4.90;99.90;;;;;;5070593;28;20105;-88
2021/12/03 08:17:33;;;;;;;4.47;2.35;;;3.00;99.90;;;;;;5071586;28;20399;-87
2021/12/03 08:20:00;;;;;;;4.95;2.67;;;5.00;99.90;;;;;;5088163;28;20036;-87
2021/12/03 08:22:26;;;;;;;9.75;2.90;;;4.70;99.90;;;;;;5053959;28;20090;-88
2021/12/03 08:24:52;;;;;;;5.93;2.42;;;3.00;99.90;;;;;;5053844;28;20503;-87
2021/12/03 08:27:18;;;;;;;5.95;2.50;;;3.00;99.90;;;;;;5052745;28;20090;-88
2021/12/03 08:29:44;;;;;;;7.38;2.60;;;3.90;99.90;;;;;;5053559;28;20068;-87
2021/12/03 08:32:10;;;;;;;9.00;2.67;;;3.10;99.90;;;;;;5052811;28;20093;-86
2021/12/03 08:34:36;;;;;;;7.85;2.38;;;4.10;99.90;;;;;;5088460;28;20044;-88
2021/12/03 08:37:03;;;;;;;5.65;2.08;;;3.10;99.90;;;;;;5053622;28;20465;-86
2021/12/03 08:39:30;;;;;;;7.53;2.10;;;3.10;99.90;;;;;;5036969;28;20395;-85
2021/12/03 08:41:57;;;;;;;8.45;2.03;;;3.80;99.90;;;;;;5053176;28;20125;-86
2021/12/03 08:44:23;;;;;;;5.38;2.20;;;3.20;99.90;;;;;;5035411;28;20081;-86
2021/12/03 08:46:56;;;;;;;8.23;2.15;;;4.20;99.90;;;;;;5070465;28;20492;-85
2021/12/03 08:49:29;;;;;;;4.90;1.85;;;4.80;99.90;;;;;;5053511;28;20071;-87
2021/12/03 08:57:32;;;;;;;7.67;3.03;;;3.40;99.90;;;;;;5025173;28;20084;-87
2021/12/03 09:00:03;;;;;;;7.47;3.15;;;3.40;99.90;;;;;;5087781;28;20055;-87
2021/12/03 09:02:29;;;;;;;10.77;3.63;;;3.40;99.90;;;;;;5068677;28;20460;-86
2021/12/03 09:04:54;;;;;;;10.38;3.33;;;3.50;99.90;;;;;;5051747;28;20131;-85
2021/12/03 09:07:20;;;;;;;9.43;3.38;;;3.50;99.90;;;;;;5052652;28;20044;-86
2021/12/03 09:09:46;;;;;;;9.32;3.20;;;3.50;99.90;;;;;;5051598;28;20479;-86
2021/12/03 09:12:12;;;;;;;6.32;3.20;;;3.80;99.90;;;;;;5069576;28;20548;-86
2021/12/03 09:20:00;;;;;;;9.73;4.15;;;3.60;99.90;;;;;;5069251;28;20052;-87
2021/12/03 09:24:53;;;;;;;10.13;4.35;;;3.60;99.90;;;;;;5069052;28;20095;-86
2021/12/03 09:27:20;;;;;;;9.38;4.65;;;3.60;99.90;;;;;;5068717;28;20051;-87
2021/12/03 09:29:47;;;;;;;8.65;4.18;;;4.80;99.90;;;;;;5070491;28;20130;-86
2021/12/03 09:32:20;;;;;;;11.25;4.75;;;5.20;99.90;;;;;;5066152;28;20102;-87
2021/12/03 09:34:46;;;;;;;10.50;4.40;;;3.70;99.90;;;;;;5067628;28;20051;-87
2021/12/03 09:37:12;;;;;;;8.23;5.13;;;3.90;99.90;;;;;;5037862;28;20047;-87
2021/12/03 09:39:41;;;;;;;8.52;5.35;;;3.70;99.90;;;;;;5056148;28;20102;-87
2021/12/03 09:42:07;;;;;;;8.98;5.05;;;5.60;99.90;;;;;;5073097;28;20074;-87
2021/12/03 09:44:33;;;;;;;16.55;5.97;;;5.50;99.90;;;;;;5055897;28;20445;-86
2021/12/03 09:47:00;;;;;;;10.25;5.90;;;3.80;99.90;;;;;;5075072;28;20040;-86
2021/12/03 09:49:37;;;;;;;11.27;6.18;;;3.80;99.90;;;;;;5054422;28;20040;-86
2021/12/03 09:54:40;;;;;;;10.18;5.72;;;3.80;99.90;;;;;;5066708;28;20372;-87
2021/12/03 09:57:11;;;;;;;12.95;6.35;;;3.80;99.90;;;;;;5064718;28;20522;-87
2021/12/03 10:13:10;;;;;;;20.70;7.50;;;4.00;99.90;;;;;;5070394;28;20087;-87
2021/12/03 10:16:16;;;;;;;12.13;6.45;;;4.00;99.90;;;;;;5069373;28;20048;-87
2021/12/03 10:18:44;;;;;;;14.70;6.18;;;4.00;99.90;;;;;;5067054;28;20074;-87
2021/12/03 10:29:17;;;;;;;15.45;6.13;;;4.10;99.90;;;;;;5069670;28;20135;-86
2021/12/03 10:37:40;;;;;;;14.63;6.53;;;4.20;99.90;;;;;;5069710;28;20673;-87
2021/12/03 10:40:11;;;;;;;20.65;5.90;;;4.20;99.90;;;;;;5066612;28;20056;-87
2021/12/03 10:42:46;;;;;;;13.23;5.20;;;4.20;99.90;;;;;;5056089;28;20198;-87
2021/12/03 10:59:06;;;;;;;7.72;3.65;;;4.30;99.90;;;;;;5068396;28;20047;-87
2021/12/03 11:04:37;;;;;;;13.48;5.85;;;4.30;99.90;;;;;;5069196;28;20156;-87
2021/12/03 12:25:06;;;;;;;12.68;3.65;;;5.70;99.90;;;;;;5066868;28;20096;-86
2021/12/03 12:44:14;;;;;;;11.27;3.33;;;4.00;99.90;;;;;;5067355;28;20101;-86
2021/12/03 13:28:52;;;;;;;8.88;3.22;;;4.30;99.90;;;;;;5068596;28;20044;-86
2021/12/03 13:35:16;;;;;;;7.80;2.97;;;3.90;99.90;;;;;;5068807;28;20056;-86
2021/12/03 13:56:00;;;;;;;10.68;3.70;;;4.10;99.90;;;;;;5075148;28;20051;-86
2021/12/03 14:02:03;;;;;;;9.52;3.10;;;4.20;99.90;;;;;;5040907;28;20059;-84
2021/12/03 14:21:38;;;;;;;12.68;3.35;;;4.30;99.90;;;;;;5070633;28;20468;-83
2021/12/03 14:38:22;;;;;;;4.35;2.20;;;4.40;99.90;;;;;;5088675;28;20399;-85
2021/12/03 14:51:53;;;;;;;6.80;2.72;;;4.50;99.90;;;;;;5088243;28;20059;-85
2021/12/03 14:56:39;;;;;;;;;;;4.60;99.90;;;;;;5086370;28;20488;-84
2021/12/03 14:59:17;;;;;;;8.20;2.45;;;4.60;99.90;;;;;;5070518;28;19927;-84
2021/12/03 15:07:21;;;;;;;6.47;2.85;;;4.60;99.90;;;;;;5014730;28;20054;-84
2021/12/03 15:09:49;;;;;;;6.50;2.40;;;4.60;99.90;;;;;;5067017;28;20056;-85
2021/12/03 15:36:13;;;;;;;8.85;3.55;;;6.20;99.90;;;;;;5035096;28;20052;-87
2021/12/03 15:39:03;;;;;;;5.93;3.95;;;4.40;99.90;;;;;;5041475;28;20125;-87
2021/12/03 15:55:38;;;;;;;6.70;4.55;;;5.60;99.90;;;;;;5073147;28;20512;-88
2021/12/03 16:08:26;;;;;;;7.15;5.28;;;4.40;99.90;;;;;;5057633;28;20113;-85
2021/12/03 16:17:04;;;;;;;7.00;5.18;;;4.90;99.90;;;;;;5029852;28;20123;-86
2021/12/03 16:21:47;;;;;;;7.85;4.97;;;4.40;99.90;;;;;;5071883;28;20055;-86
2021/12/03 16:43:46;;;;;;;7.20;5.63;;;3.90;99.90;;;;;;5052401;28;20058;-85
2021/12/03 16:56:52;;;;;;;10.40;6.75;;;4.60;99.90;;;;;;5062320;28;20055;-86
2021/12/03 16:59:19;;;;;;;10.23;6.00;;;4.50;99.90;;;;;;5068009;28;20058;-85
2021/12/03 17:07:55;;;;;;;14.27;7.07;;;6.20;99.90;;;;;;5084428;28;20051;-84
2021/12/03 17:28:52;;;;;;;9.38;8.15;;;4.50;99.90;;;;;;5084352;28;20051;-85
2021/12/03 17:31:34;;;;;;;9.70;7.20;;;4.50;99.90;;;;;;5083138;28;20084;-87
2021/12/03 17:47:45;;;;;;;7.93;6.97;;;4.50;99.90;;;;;;5065681;28;20048;-83
2021/12/03 17:50:35;;;;;;;11.60;7.57;;;4.50;99.90;;;;;;5085356;28;20082;-84
2021/12/03 17:58:31;;;;;;;14.77;9.43;;;5.10;99.90;;;;;;5084921;28;20060;-85
2021/12/03 18:06:50;;;;;;;12.25;8.52;;;5.90;99.90;;;;;;5064744;28;20135;-84
2021/12/03 18:09:33;;;;;;;10.90;8.30;;;4.50;99.90;;;;;;5083178;28;20048;-84
2021/12/03 18:48:07;;;;;;;15.23;10.98;;;4.80;99.90;;;;;;4996502;28;20041;-86
2021/12/03 18:55:52;;;;;;;16.40;10.57;;;5.70;99.90;;;;;;5047726;28;20052;-86
2021/12/03 18:58:19;;;;;;;15.93;10.65;;;6.10;99.90;;;;;;5058307;28;20040;-85
2021/12/03 19:00:46;;;;;;;14.75;10.27;;;3.60;99.90;;;;;;5023108;28;20079;-84
2021/12/03 19:06:16;;;;;;;15.20;10.63;;;5.20;99.90;;;;;;5070234;28;20087;-87
2021/12/03 19:08:54;;;;;;;16.38;10.95;;;4.70;99.90;;;;;;5054308;28;20088;-86
2021/12/03 19:13:53;;;;;;;22.90;15.85;;;4.70;99.90;;;;;;5070535;28;20059;-86
2021/12/03 19:16:23;;;;;;;18.55;13.05;;;4.80;99.90;;;;;;5054838;28;20040;-85
2021/12/03 19:18:51;;;;;;;17.58;11.88;;;4.70;99.90;;;;;;5071320;28;20477;-85
2021/12/03 19:21:23;;;;;;;16.48;11.43;;;5.00;99.90;;;;;;5090811;28;20036;-85
2021/12/03 19:23:58;;;;;;;18.17;11.88;;;4.80;99.90;;;;;;5089062;28;20083;-84
2021/12/03 19:26:25;;;;;;;16.65;11.85;;;4.80;99.90;;;;;;5054439;28;20105;-85
2021/12/03 19:28:52;;;;;;;18.95;13.02;;;4.80;99.90;;;;;;5089956;28;20407;-85
2021/12/03 19:31:21;;;;;;;17.85;12.75;;;4.80;99.90;;;;;;5072171;28;20518;-85
2021/12/03 19:33:47;;;;;;;17.25;12.75;;;4.80;99.90;;;;;;5071738;28;20091;-85
2021/12/03 19:36:21;;;;;;;18.05;12.80;;;4.80;99.90;;;;;;5089352;28;20040;-84
2021/12/03 19:38:53;;;;;;;21.23;14.40;;;4.80;99.90;;;;;;5071884;28;20048;-84
2021/12/03 19:43:53;;;;;;;22.13;14.30;;;4.80;99.90;;;;;;5090217;28;20097;-84
2021/12/03 19:46:26;;;;;;;20.63;13.88;;;4.80;99.90;;;;;;5072440;28;20087;-86
2021/12/03 19:49:13;;;;;;;18.10;12.18;;;6.60;99.90;;;;;;5054104;28;20044;-84
2021/12/03 19:51:55;;;;;;;24.98;15.23;;;4.90;99.90;;;;;;5089015;28;20079;-85
2021/12/03 19:54:22;;;;;;;23.25;15.55;;;4.90;99.90;;;;;;5055161;28;20109;-84
2021/12/03 19:56:49;;;;;;;23.17;15.35;;;5.20;99.90;;;;;;5054797;28;20613;-85
2021/12/03 19:59:17;;;;;;;22.33;15.52;;;4.90;99.90;;;;;;5054648;28;20170;-85
2021/12/03 20:01:43;;;;;;;23.45;16.15;;;4.90;99.90;;;;;;5037559;28;20102;-84
2021/12/03 20:04:12;;;;;;;27.35;17.25;;;4.90;99.90;;;;;;5053557;28;20048;-84
2021/12/03 20:06:43;;;;;;;23.67;16.10;;;4.90;99.90;;;;;;5052972;28;20173;-83
2021/12/03 20:09:15;;;;;;;27.30;16.60;;;5.10;99.90;;;;;;5053431;28;20052;-84
2021/12/03 20:11:44;;;;;;;29.58;16.50;;;5.70;99.90;;;;;;5038220;28;20040;-82
2021/12/03 20:14:15;;;;;;;25.65;16.55;;;4.90;99.90;;;;;;5053564;28;20055;-83
2021/12/03 20:16:57;;;;;;;27.65;17.23;;;5.60;99.90;;;;;;5087611;28;20143;-84
2021/12/03 20:22:26;;;;;;;28.73;18.30;;;4.90;99.90;;;;;;5052278;28;20048;-83
2021/12/03 20:27:39;;;;;;;27.88;18.30;;;6.00;99.90;;;;;;5089279;28;20040;-83
2021/12/03 20:30:10;;;;;;;32.30;17.17;;;5.80;99.90;;;;;;5089296;28;20084;-84
2021/12/03 20:32:38;;;;;;;27.65;17.67;;;4.90;99.90;;;;;;5037004;28;20036;-83
2021/12/03 20:37:50;;;;;;;31.80;18.58;;;5.00;99.90;;;;;;5086066;28;20579;-82
2021/12/03 20:40:23;;;;;;;29.00;17.90;;;5.00;99.90;;;;;;5068461;28;20059;-82